Time;durP1;ratioP1;P1;durP2;ratioP2;P2;SDS_P1;SDS_P2;PMS_P1;PMS_P2;Temp;Humidity;BMP_temperature;BMP_pressure;BME280_temperature;BME280_humidity;BME280_pressure;Samples;Min_cycle;Max_cycle;Signal;HPM_P1;HPM_P2
2022/08/11 04:32:01;;;;;;;10.40;10.10;;;15.50;99.90;;;;;;5014075;28;20236;-86
2022/08/11 04:34:51;;;;;;;10.60;10.30;;;15.40;99.90;;;;;;4999229;28;20242;-87
2022/08/11 04:37:48;;;;;;;10.60;10.30;;;15.40;99.90;;;;;;4998248;28;20228;-86
2022/08/11 04:41:13;;;;;;;10.70;10.40;;;15.40;99.90;;;;;;5017568;28;20234;-86
2022/08/11 04:44:27;;;;;;;10.52;10.23;;;15.40;99.90;;;;;;5019802;28;20267;-86
2022/08/11 05:06:59;;;;;;;10.57;10.27;;;15.50;99.90;;;;;;5013546;28;20291;-86
2022/08/11 05:10:12;;;;;;;10.57;10.27;;;15.60;99.90;;;;;;5019878;28;20239;-85
2022/08/11 05:12:51;;;;;;;10.68;10.38;;;15.60;99.90;;;;;;4998163;28;20289;-86
2022/08/11 05:35:33;;;;;;;10.38;10.07;;;16.60;99.90;;;;;;5020516;28;20220;-84
2022/08/11 05:57:59;;;;;;;10.40;10.10;;;18.20;99.90;;;;;;5024305;28;20228;-84
2022/08/11 06:00:27;;;;;;;10.27;9.98;;;18.40;99.90;;;;;;5024520;28;20228;-81
2022/08/11 06:02:59;;;;;;;10.15;9.85;;;18.60;99.90;;;;;;5023431;28;20232;-82
2022/08/11 06:05:37;;;;;;;10.38;10.07;;;18.80;99.90;;;;;;5022625;28;20234;-82
2022/08/11 06:08:06;;;;;;;10.40;10.10;;;18.90;99.90;;;;;;5022249;28;20327;-82
2022/08/11 06:10:44;;;;;;;10.50;10.20;;;19.00;99.90;;;;;;5023778;28;20236;-83
2022/08/11 06:13:23;;;;;;;10.35;10.05;;;19.10;99.90;;;;;;5025881;28;20243;-83
2022/08/11 06:15:54;;;;;;;10.40;10.10;;;19.30;99.90;;;;;;5023514;28;20323;-85
2022/08/11 06:18:25;;;;;;;10.57;10.27;;;19.40;99.90;;;;;;5022948;28;20240;-86
2022/08/11 06:21:03;;;;;;;10.65;10.35;;;19.50;99.90;;;;;;5022946;28;20228;-84
2022/08/11 06:23:41;;;;;;;10.60;10.30;;;19.70;99.90;;;;;;5023020;28;20224;-83
2022/08/11 06:26:17;;;;;;;10.70;10.40;;;19.90;99.90;;;;;;5022576;28;20243;-82
2022/08/11 06:28:46;;;;;;;10.70;10.40;;;20.00;99.90;;;;;;5022605;28;20228;-84
2022/08/11 06:31:17;;;;;;;10.75;10.45;;;20.20;99.90;;;;;;5022825;28;20216;-83
2022/08/11 06:34:13;;;;;;;10.80;10.50;;;20.40;99.90;;;;;;5022873;28;20228;-84
2022/08/11 06:36:51;;;;;;;10.70;10.40;;;20.50;99.90;;;;;;5022592;28;20236;-88
2022/08/11 06:39:28;;;;;;;10.48;10.18;;;20.60;99.90;;;;;;5023239;28;20216;-87
2022/08/11 06:42:15;;;;;;;10.60;10.30;;;20.80;99.90;;;;;;5022614;28;20300;-84
2022/08/11 06:44:54;;;;;;;10.77;10.48;;;20.80;99.90;;;;;;5022064;28;20263;-86
2022/08/11 06:47:22;;;;;;;10.80;10.50;;;21.00;99.90;;;;;;5023136;28;20317;-85
2022/08/11 06:52:41;;;;;;;10.80;10.50;;;21.20;99.90;;;;;;5025871;28;20232;-85
2022/08/11 07:00:26;;;;;;;10.95;10.65;;;21.30;99.90;;;;;;5032667;28;20224;-84
2022/08/11 07:01:01;;;;;;;10.80;10.50;;;21.50;99.90;;;;;;5022973;28;20298;-85
2022/08/11 07:03:38;;;;;;;10.77;10.48;;;21.60;99.90;;;;;;5027731;28;20208;-83
2022/08/11 07:06:18;;;;;;;10.85;10.55;;;21.70;99.90;;;;;;5026938;28;20228;-81
2022/08/11 07:15:47;;;;;;;11.10;10.80;;;22.10;99.90;;;;;;5037575;28;20208;-81
2022/08/11 07:29:51;;;;;;;10.50;10.20;;;22.50;99.90;;;;;;5036832;28;20256;-82
2022/08/11 07:32:30;;;;;;;10.25;9.95;;;22.70;99.90;;;;;;5031172;28;20255;-81
2022/08/11 07:35:08;;;;;;;10.60;10.30;;;22.70;99.90;;;;;;5026218;28;20283;-82
2022/08/11 07:37:38;;;;;;;10.27;9.98;;;22.80;99.90;;;;;;5015067;28;20242;-82
2022/08/11 07:40:07;;;;;;;10.50;10.20;;;22.90;99.90;;;;;;5038517;28;20288;-83
2022/08/11 07:42:36;;;;;;;10.45;10.15;;;23.10;99.90;;;;;;5043136;28;20280;-84
2022/08/11 07:53:28;;;;;;;10.75;10.45;;;23.60;99.90;;;;;;5051031;28;20220;-84
2022/08/11 07:56:05;;;;;;;11.02;10.73;;;23.70;99.90;;;;;;5050847;28;20250;-83
2022/08/11 08:21:10;;;;;;;11.10;10.80;;;24.50;99.90;;;;;;5022905;28;20220;-81
2022/08/11 08:23:42;;;;;;;10.82;10.52;;;24.70;99.90;;;;;;5022732;28;20238;-81
2022/08/11 08:30:46;;;;;;;10.93;10.63;;;25.00;99.90;;;;;;5022230;28;20252;-82
2022/08/11 08:31:47;;;;;;;11.00;10.70;;;25.10;99.90;;;;;;5023436;28;20712;-82
2022/08/11 08:34:15;;;;;;;11.30;11.00;;;25.20;99.90;;;;;;5021469;28;20290;-82
2022/08/11 08:36:50;;;;;;;11.05;10.75;;;25.30;99.90;;;;;;5023143;28;20299;-82
2022/08/11 08:39:20;;;;;;;11.18;10.88;;;25.40;99.90;;;;;;5024089;28;20212;-83
2022/08/11 08:41:52;;;;;;;11.35;11.05;;;25.40;99.90;;;;;;5023449;28;20250;-82
2022/08/11 08:44:27;;;;;;;11.20;10.90;;;25.40;99.90;;;;;;5022260;28;20323;-80
2022/08/11 08:47:07;;;;;;;11.18;10.88;;;25.40;99.90;;;;;;5024838;28;20307;-81
2022/08/11 08:49:48;;;;;;;11.20;10.90;;;25.40;99.90;;;;;;5022017;28;20301;-80
2022/08/11 08:52:22;;;;;;;11.30;11.00;;;25.50;99.90;;;;;;5023336;28;20227;-81
2022/08/11 08:55:01;;;;;;;11.27;10.98;;;25.60;99.90;;;;;;5020391;28;20310;-80
2022/08/11 08:57:32;;;;;;;11.30;11.00;;;25.70;99.90;;;;;;5021452;28;20298;-81
2022/08/11 09:03:06;;;;;;;11.23;10.93;;;26.00;99.90;;;;;;5020072;28;20209;-85
2022/08/11 09:08:50;;;;;;;11.30;11.00;;;26.30;99.90;;;;;;5018580;28;20708;-86
2022/08/11 09:14:04;;;;;;;11.20;10.90;;;26.60;99.90;;;;;;5022363;28;20212;-80
2022/08/11 09:16:33;;;;;;;11.23;10.93;;;26.90;99.90;;;;;;5022684;28;20232;-80
2022/08/11 09:19:02;;;;;;;11.38;11.07;;;27.10;99.90;;;;;;5023954;28;20235;-80
2022/08/11 09:21:31;;;;;;;10.63;10.32;;;27.30;99.90;;;;;;5022672;28;20232;-80
2022/08/11 09:29:38;;;;;;;10.40;10.10;;;27.50;99.90;;;;;;5019269;28;20240;-80
2022/08/11 09:32:07;;;;;;;10.70;10.40;;;27.70;99.90;;;;;;5025836;28;20250;-80
2022/08/11 09:34:36;;;;;;;10.70;10.40;;;28.00;99.90;;;;;;5024938;28;20327;-80
2022/08/11 09:45:25;;;;;;;11.30;11.00;;;28.20;99.90;;;;;;5004511;28;20221;-80
2022/08/11 09:47:54;;;;;;;11.30;11.00;;;28.30;99.90;;;;;;5006506;28;20243;-80
2022/08/11 09:50:23;;;;;;;11.05;10.75;;;28.50;99.90;;;;;;5005918;28;20336;-81
2022/08/11 09:52:53;;;;;;;11.05;10.75;;;28.50;99.90;;;;;;5007397;28;20260;-80
2022/08/11 09:55:26;;;;;;;11.10;10.80;;;28.70;99.90;;;;;;5006913;28;20233;-79
2022/08/11 10:00:39;;;;;;;10.90;10.60;;;28.80;99.90;;;;;;5006868;28;20213;-79
2022/08/11 10:03:11;;;;;;;10.77;10.48;;;29.00;99.90;;;;;;5007050;28;20232;-80
2022/08/11 10:08:29;;;;;;;10.98;10.68;;;29.10;99.90;;;;;;5025784;28;20235;-80
2022/08/11 10:10:58;;;;;;;11.05;10.75;;;29.10;99.90;;;;;;5025950;28;20248;-79
2022/08/11 10:15:32;;;;;;;11.00;10.70;;;29.20;99.90;;;;;;5027171;28;20291;-79
2022/08/11 10:16:26;;;;;;;10.90;10.60;;;29.10;99.90;;;;;;5025504;28;20224;-80
2022/08/11 10:18:59;;;;;;;11.00;10.70;;;28.90;99.90;;;;;;5026798;28;20239;-78
2022/08/11 10:21:30;;;;;;;11.00;10.70;;;28.80;99.90;;;;;;5028164;28;20248;-78
2022/08/11 10:26:57;;;;;;;10.80;10.50;;;29.00;99.90;;;;;;5026142;28;20228;-80
2022/08/11 10:35:06;;;;;;;11.38;11.07;;;30.20;99.90;;;;;;5026815;28;20228;-79
2022/08/11 10:37:35;;;;;;;11.18;10.88;;;30.60;99.90;;;;;;5027365;28;20232;-79
2022/08/11 10:40:07;;;;;;;11.02;10.73;;;30.90;99.90;;;;;;5025318;28;20235;-79
2022/08/11 10:48:10;;;;;;;11.15;10.85;;;31.30;99.70;;;;;;5032174;28;20224;-80
2022/08/11 10:59:00;;;;;;;11.07;10.77;;;31.30;99.70;;;;;;5028207;28;20221;-79
2022/08/11 11:01:33;;;;;;;11.05;10.75;;;31.60;99.30;;;;;;5027613;28;20239;-79
2022/08/11 11:04:09;;;;;;;10.90;10.60;;;31.70;98.70;;;;;;5027209;28;20263;-79
2022/08/11 11:06:48;;;;;;;11.00;10.70;;;31.60;98.90;;;;;;5025283;28;20236;-78
2022/08/11 11:09:23;;;;;;;10.90;10.60;;;31.40;98.70;;;;;;5030191;28;20236;-78
2022/08/11 11:20:25;;;;;;;11.07;10.77;;;31.60;98.50;;;;;;5028406;28;20216;-79
2022/08/11 11:22:59;;;;;;;11.32;11.02;;;32.10;97.30;;;;;;5029565;28;20267;-79
2022/08/11 11:26:05;;;;;;;11.32;11.02;;;32.20;96.20;;;;;;5027127;28;20247;-80
2022/08/11 11:29:01;;;;;;;10.98;10.68;;;32.30;95.50;;;;;;5026615;28;20239;-80
2022/08/11 11:31:49;;;;;;;11.00;10.70;;;32.20;95.20;;;;;;5026739;28;20225;-80
2022/08/11 11:34:45;;;;;;;10.90;10.60;;;32.10;95.30;;;;;;5026620;28;20228;-80
2022/08/11 11:37:17;;;;;;;10.90;10.60;;;32.00;94.70;;;;;;5029012;28;20228;-79
2022/08/11 11:39:45;;;;;;;11.10;10.80;;;31.80;95.30;;;;;;5037034;28;20247;-80
2022/08/11 11:42:14;;;;;;;11.20;10.90;;;31.80;95.10;;;;;;5037526;28;20216;-80
2022/08/11 11:44:45;;;;;;;11.07;10.77;;;31.70;95.60;;;;;;5036336;28;20263;-79
2022/08/11 11:47:21;;;;;;;10.98;10.68;;;31.90;94.50;;;;;;5031999;28;20713;-80
2022/08/11 11:49:51;;;;;;;11.00;10.70;;;32.40;93.80;;;;;;5029540;28;20250;-80
2022/08/11 11:52:22;;;;;;;11.00;10.70;;;32.80;94.10;;;;;;5027265;28;20234;-79
2022/08/11 11:54:59;;;;;;;11.15;10.85;;;32.90;93.30;;;;;;5025476;28;20266;-79
2022/08/11 12:03:07;;;;;;;11.10;10.80;;;32.00;92.30;;;;;;5025458;28;20220;-81
2022/08/11 12:05:40;;;;;;;11.13;10.82;;;31.50;91.90;;;;;;5025600;28;20335;-80
2022/08/11 12:08:14;;;;;;;11.18;10.88;;;31.50;92.80;;;;;;5031018;28;20295;-81
2022/08/11 12:10:48;;;;;;;10.95;10.65;;;31.70;93.20;;;;;;5035569;28;20246;-81
2022/08/11 12:16:05;;;;;;;10.80;10.50;;;32.00;92.50;;;;;;5029080;28;20224;-81
2022/08/11 12:18:37;;;;;;;11.00;10.70;;;32.40;93.60;;;;;;5028118;28;20251;-81
2022/08/11 12:21:06;;;;;;;10.77;10.48;;;32.90;92.50;;;;;;5027994;28;20225;-82
2022/08/11 12:29:26;;;;;;;10.85;10.55;;;32.50;90.90;;;;;;5025190;28;20263;-81
2022/08/11 12:31:56;;;;;;;11.00;10.70;;;32.40;92.00;;;;;;5024574;28;20225;-82
2022/08/11 12:34:28;;;;;;;11.20;10.90;;;32.60;91.30;;;;;;5005558;28;20225;-82
2022/08/11 12:37:04;;;;;;;11.02;10.73;;;32.90;91.80;;;;;;5018778;28;20303;-81
2022/08/11 12:45:33;;;;;;;10.85;10.55;;;33.50;91.10;;;;;;5024808;28;20224;-82
2022/08/11 12:54:01;;;;;;;10.27;9.98;;;33.40;88.60;;;;;;5012922;28;20232;-81
2022/08/11 13:05:01;;;;;;;10.75;10.45;;;34.70;87.70;;;;;;5046666;28;20219;-82
2022/08/11 13:07:38;;;;;;;11.57;11.27;;;35.00;89.70;;;;;;5046465;28;20231;-81
2022/08/11 13:10:09;;;;;;;11.50;11.20;;;35.10;86.50;;;;;;5047046;28;20231;-81
2022/08/11 13:12:49;;;;;;;11.50;11.20;;;35.10;87.80;;;;;;5046561;28;20293;-81
2022/08/11 13:15:23;;;;;;;11.20;10.90;;;35.30;85.30;;;;;;5045988;28;20230;-81
2022/08/11 13:17:54;;;;;;;10.98;10.68;;;35.50;83.60;;;;;;5046383;28;20258;-81
2022/08/11 13:20:25;;;;;;;10.07;9.77;;;35.60;85.40;;;;;;5044695;28;20303;-79
2022/08/11 13:22:57;;;;;;;10.35;10.05;;;35.60;83.10;;;;;;5047088;28;20231;-80
2022/08/11 13:25:30;;;;;;;10.13;9.82;;;35.90;84.40;;;;;;5045562;28;20269;-79
2022/08/11 13:28:02;;;;;;;10.32;10.02;;;35.90;85.30;;;;;;5045531;28;20288;-83
2022/08/11 13:33:28;;;;;;;10.10;9.80;;;35.40;82.90;;;;;;5009952;28;20326;-82
2022/08/11 13:35:56;;;;;;;11.00;10.70;;;35.20;81.50;;;;;;5022497;28;20228;-82
2022/08/11 13:38:28;;;;;;;11.00;10.70;;;35.00;83.10;;;;;;5023210;28;20234;-81
2022/08/11 13:40:57;;;;;;;11.15;10.85;;;34.70;80.90;;;;;;5026585;28;20299;-81
2022/08/11 13:43:25;;;;;;;11.18;10.88;;;34.40;81.60;;;;;;5026486;28;20312;-83
2022/08/11 13:46:17;;;;;;;10.90;10.60;;;34.00;82.80;;;;;;5024395;28;20327;-79
2022/08/11 13:48:42;;;;;;;11.20;10.90;;;33.60;84.90;;;;;;5024102;28;20279;-81
2022/08/11 13:54:06;;;;;;;10.85;10.55;;;32.90;84.00;;;;;;5023133;28;20712;-81
2022/08/11 13:56:38;;;;;;;11.10;10.80;;;32.90;85.90;;;;;;5022945;28;20771;-82
2022/08/11 13:59:08;;;;;;;10.90;10.60;;;33.50;86.00;;;;;;5024658;28;20231;-82
2022/08/11 14:01:44;;;;;;;11.02;10.73;;;34.20;85.20;;;;;;5022855;28;20232;-82
2022/08/11 14:04:17;;;;;;;10.70;10.40;;;34.80;82.90;;;;;;5025818;28;20243;-82
2022/08/11 14:06:53;;;;;;;10.90;10.60;;;35.10;83.40;;;;;;5031302;28;20244;-81
2022/08/11 14:09:31;;;;;;;10.93;10.63;;;35.30;83.00;;;;;;5026735;28;20232;-83
2022/08/11 14:14:57;;;;;;;10.63;10.32;;;35.30;80.50;;;;;;5023707;28;20315;-84
2022/08/11 14:17:25;;;;;;;10.32;10.02;;;35.00;80.70;;;;;;5020845;28;20243;-85
2022/08/11 14:19:55;;;;;;;10.07;9.77;;;35.00;83.40;;;;;;5023203;28;20259;-84
2022/08/11 14:22:21;;;;;;;10.10;9.80;;;35.40;82.50;;;;;;5022658;28;20382;-83
2022/08/11 14:24:55;;;;;;;10.20;9.90;;;35.30;81.10;;;;;;5021967;28;20295;-83
2022/08/11 14:27:29;;;;;;;10.30;10.00;;;35.60;82.20;;;;;;5022594;28;20255;-84
2022/08/11 14:30:01;;;;;;;10.20;9.90;;;36.10;80.70;;;;;;5021560;28;20239;-84
2022/08/11 14:32:31;;;;;;;10.50;10.20;;;35.40;80.10;;;;;;5021714;28;20307;-84
2022/08/11 14:35:00;;;;;;;10.57;10.27;;;34.90;80.40;;;;;;5021566;28;20297;-86
2022/08/11 14:37:30;;;;;;;10.70;10.40;;;34.40;78.60;;;;;;5020969;28;20323;-84
2022/08/11 14:47:03;;;;;;;10.68;10.38;;;34.00;78.70;;;;;;5022942;28;20296;-85
2022/08/11 14:48:37;;;;;;;10.15;9.85;;;33.10;83.30;;;;;;5029380;28;20303;-84
2022/08/11 14:51:07;;;;;;;10.18;9.88;;;33.30;84.10;;;;;;5025015;28;20264;-84
2022/08/11 14:53:36;;;;;;;10.30;10.00;;;33.60;82.00;;;;;;5023794;28;20232;-85
2022/08/11 14:58:54;;;;;;;10.68;10.38;;;33.50;82.70;;;;;;5023317;28;20228;-83
2022/08/11 15:04:11;;;;;;;11.05;10.75;;;33.30;82.10;;;;;;5020271;28;20224;-84
2022/08/11 15:06:39;;;;;;;10.50;10.20;;;33.10;81.80;;;;;;5022762;28;20271;-83
2022/08/11 15:09:08;;;;;;;10.43;10.13;;;33.10;82.20;;;;;;5022457;28;20263;-87
2022/08/11 15:17:20;;;;;;;10.40;10.10;;;33.50;81.10;;;;;;5021609;28;20232;-84
2022/08/11 15:25:16;;;;;;;10.35;10.05;;;33.30;81.90;;;;;;5022865;28;20220;-85
2022/08/11 15:39:10;;;;;;;10.18;9.88;;;34.00;79.70;;;;;;5034429;28;20224;-83
2022/08/11 15:47:31;;;;;;;10.38;10.07;;;33.70;80.20;;;;;;5023771;28;20232;-85
2022/08/11 15:50:01;;;;;;;10.90;10.60;;;33.30;81.80;;;;;;5022795;28;20295;-84
2022/08/11 15:52:34;;;;;;;10.68;10.38;;;33.70;83.50;;;;;;5023202;28;20229;-85
2022/08/11 15:55:09;;;;;;;10.60;10.30;;;34.10;81.60;;;;;;5018864;28;20220;-83
2022/08/11 16:06:04;;;;;;;9.90;9.60;;;33.80;80.70;;;;;;5018294;28;20246;-84
2022/08/11 16:08:34;;;;;;;9.82;9.52;;;33.50;79.90;;;;;;5022497;28;20236;-83
2022/08/11 16:11:03;;;;;;;9.77;9.48;;;33.10;81.10;;;;;;5023719;28;20276;-81
2022/08/11 16:16:19;;;;;;;10.40;10.10;;;33.50;82.00;;;;;;5021434;28;20208;-82
2022/08/11 16:18:55;;;;;;;10.20;9.90;;;33.30;82.10;;;;;;5022305;28;20238;-82
2022/08/11 16:21:36;;;;;;;10.13;9.82;;;33.00;83.00;;;;;;5019470;28;20304;-83
2022/08/11 16:24:11;;;;;;;10.15;9.85;;;33.20;81.40;;;;;;5019185;28;20239;-83
2022/08/11 16:26:43;;;;;;;10.45;10.15;;;33.20;82.90;;;;;;5021259;28;20239;-83
2022/08/11 16:29:11;;;;;;;10.40;10.10;;;33.20;83.00;;;;;;5010634;28;20240;-81
2022/08/11 16:32:15;;;;;;;10.00;9.70;;;33.40;82.10;;;;;;5012831;28;20300;-83
2022/08/11 16:40:12;;;;;;;10.20;9.90;;;33.40;81.10;;;;;;5020759;28;20286;-83
2022/08/11 16:48:19;;;;;;;10.27;9.98;;;32.00;83.90;;;;;;5022529;28;20303;-82
2022/08/11 16:50:51;;;;;;;9.88;9.57;;;31.90;84.60;;;;;;5020002;28;20239;-83
2022/08/11 16:53:20;;;;;;;9.80;9.50;;;32.10;83.70;;;;;;5021262;28;20323;-82
2022/08/11 16:55:51;;;;;;;9.93;9.63;;;32.30;84.00;;;;;;5019962;28;20236;-81
2022/08/11 17:01:09;;;;;;;10.07;9.77;;;32.30;84.10;;;;;;5022578;28;20220;-82
2022/08/11 17:17:58;;;;;;;10.20;9.90;;;32.70;86.50;;;;;;5017668;28;20232;-83
2022/08/11 17:20:30;;;;;;;10.10;9.80;;;33.10;85.70;;;;;;5018233;28;20228;-84
2022/08/11 17:25:47;;;;;;;10.10;9.80;;;33.80;84.60;;;;;;5020479;28;20225;-83
2022/08/11 17:28:22;;;;;;;10.20;9.90;;;34.00;84.30;;;;;;5020974;28;20326;-84
2022/08/11 17:36:27;;;;;;;10.52;10.23;;;33.20;85.10;;;;;;5020805;28;20208;-82
2022/08/11 17:38:55;;;;;;;10.30;10.00;;;33.10;84.00;;;;;;5021194;28;20272;-81
2022/08/11 17:49:46;;;;;;;10.57;10.27;;;32.10;85.50;;;;;;5023457;28;20569;-82
2022/08/11 18:00:53;;;;;;;10.63;10.32;;;29.80;89.40;;;;;;5023979;28;20228;-84
2022/08/11 18:03:32;;;;;;;10.70;10.40;;;29.40;90.20;;;;;;5022699;28;20299;-84
2022/08/11 18:06:02;;;;;;;10.55;10.25;;;29.20;90.50;;;;;;5027671;28;20673;-85
